notre code QR

Villámtérkép további részletek blitzortung!


Csapadékradar további részletek rain snow radar


További állomásunk adatai:

Template documentation
and downloads

And another site

Mobil nézet





No particular awareness of the weather is required.    There are no Weather-warnings

Select another period ( hide this area )

Mértékegység Időszak Custom range Directly to
Metrikus Angol Mindkettő
Napi Heti Havi Évi
use both date-selectors for a custom range
previous Nap
With this date

WeatherUnderground graphs for this period ( click here )


Napi Summary for Kedd 31 Március 2020
Idő Temp. ( °C ) Dew pt. ( °C ) Szél ( km/h ) Érvényes Széllökés ( km/h ) Légnyomás ( hPa ) Humid.( % ) Rainrate ( cm ) Napsugárzás ( W/m2 )
Erős8,1 -7,5 27,0 ÉNY ( 379/925 ) 27,0 1024,9 53 - 612
Átlag3,6 -9,1 12,9 ÉNY #34/72 14,5 1024,4 40 - 270 #66/72
Gyenge-0,8 -12,3 5,0   5,0 1023,6 23 -  
Napi Tabular details for Kedd 31 Március 2020
Idő Temp. ( °C ) Dew pt. ( °C ) Szél ( km/h ) Érvényes Széllökés ( km/h ) Légnyomás ( hPa ) Humid.( % ) Rainrate ( cm ) Napsugárzás ( W/m2 )
00:04 -0,7 -9,3 6,1 NY 6,1 1023,9 52 - -
00:09 -0,7 -9,6 6,1 NY 6,1 1023,6 51 - -
00:14 -0,7 -9,6 6,1 NY 7,2 1023,9 51 - -
00:19 -0,7 -9,6 6,1 ÉNY 6,1 1023,6 51 - -
00:24 -0,8 -9,4 6,1 ÉNY 6,1 1023,9 52 - -
00:29 -0,8 -9,4 6,1 ÉNY 6,1 1023,9 52 - -
00:34 -0,8 -9,4 5,0 NY 6,1 1023,9 52 - 4
00:39 -0,8 -9,4 6,1 ÉNY 6,1 1023,9 52 - 6
00:44 -0,7 -9,3 5,0 ÉNY 6,1 1024,3 52 - 8
00:49 -0,6 -9,2 8,7 ÉNY 8,7 1023,9 52 - 12
00:54 -0,5 -8,9 5,0 É 6,1 1023,9 53 - 16
00:59 -0,4 -8,8 5,0 ÉNY 6,1 1024,3 53 - 20
01:04 -0,4 -8,8 5,0 ÉNY 5,0 1024,3 53 - 20
01:09 0,0 -8,7 11,1 ÉNY 11,1 1024,3 52 - 28
01:15 0,2 -8,7 11,1 ÉNY 12,2 1024,3 51 - 32
01:20 0,3 -8,9 9,7 ÉNY 11,1 1024,6 50 - 35
01:25 0,2 -9,0 12,2 ÉNY 12,2 1024,3 50 - 36
01:30 0,2 -9,0 8,7 ÉNY 9,7 1024,3 50 - 40
01:35 0,3 -8,9 12,2 ÉNY 12,2 1024,6 50 - 43
01:40 0,7 -8,5 12,2 É 13,4 1023,9 50 - 45
01:45 0,9 -8,4 12,2 ÉNY 13,4 1024,3 50 - 43
01:50 1,1 -8,2 12,2 ÉÉNY 12,2 1024,6 50 - 41
01:55 1,3 -8,5 13,4 ÉNY 17,2 1024,3 48 - 47
02:00 1,4 -8,4 13,4 ÉNY 13,4 1024,3 48 - 45
02:05 1,6 -8,5 13,4 É 13,4 1024,3 47 - 64
02:10 1,8 -8,9 13,4 É 17,2 1024,3 45 - 52
02:15 2,0 -8,7 13,4 ÉNY 17,2 1024,6 45 - 117
02:20 2,5 -8,2 18,3 É 18,3 1024,3 45 - 111
02:25 2,6 -8,4 12,2 É 14,8 1024,6 44 - 174
02:30 3,2 -7,9 15,8 ÉÉNY 17,2 1024,6 44 - 181
02:36 3,5 -7,9 15,8 ÉNY 15,8 1024,3 43 - 141
02:41 3,6 -8,1 18,3 É 18,3 1024,6 42 - 197
02:46 3,6 -8,1 15,8 ÉNY 15,8 1024,6 42 - 164
02:51 4,0 -7,8 14,8 ÉNY 14,8 1024,6 42 - 193
02:56 4,6 -7,5 13,4 ÉNY 13,4 1024,9 41 - 227
03:01 4,6 -7,5 14,8 É 14,8 1024,6 41 - 240
03:06 4,7 -7,8 17,2 É 17,2 1024,6 40 - 253
03:11 4,8 -7,7 17,2 ÉÉNY 17,2 1024,6 40 - 267
03:16 4,8 -7,7 14,8 ÉNY 21,9 1024,6 40 - 224
03:21 4,9 -8,9 12,2 ÉNY 17,2 1024,6 36 - 293
03:26 5,1 -8,8 18,3 ÉNY 18,3 1024,9 36 - 313
03:31 5,3 -7,9 17,2 ÉK 17,2 1024,9 38 - 335
03:36 5,5 -7,7 19,5 É 19,5 1024,6 38 - 349
03:41 5,5 -8,4 13,4 É 15,8 1024,9 36 - 366
03:46 5,6 -7,6 13,4 É 17,2 1024,9 38 - 383
03:51 5,6 -7,6 13,4 É 13,4 1024,9 38 - 403
03:56 5,7 -8,2 15,8 ÉK 15,8 1024,9 36 - 420
04:02 5,8 -8,1 15,8 ÉÉNY 15,8 1024,9 36 - 427
04:07 6,0 -9,1 11,1 ÉNY 13,4 1024,6 33 - 436
04:12 6,0 -9,9 14,8 É 21,9 1024,9 31 - 442
04:17 6,5 -9,4 19,5 É 19,5 1024,6 31 - 446
04:22 6,2 -9,7 15,8 É 20,9 1024,6 31 - 447
04:27 6,2 -9,7 18,3 ÉÉNY 18,3 1024,6 31 - 451
04:32 6,4 -9,5 13,4 ÉK 14,8 1024,6 31 - 471
04:37 6,6 -9,3 11,1 É 21,9 1024,6 31 - 483
04:42 6,4 -9,9 21,9 É 21,9 1024,6 30 - 513
04:47 6,5 -9,8 9,7 É 11,1 1024,6 30 - 111
04:52 5,4 -10,8 11,1 ÉNY 19,5 1024,6 30 - 103
04:57 5,8 -10,5 18,3 ÉNY 18,3 1024,6 30 - 499
05:02 6,7 -9,7 27,0 ÉK 27,0 1024,6 30 - 535
05:07 6,4 -9,9 7,2 É 11,1 1024,3 30 - 99
05:12 6,0 -10,3 17,2 ÉÉNY 18,3 1024,6 30 - 526
05:17 7,0 -9,0 7,2 ÉNY 14,8 1024,3 31 - 552
05:23 7,1 -9,3 9,7 ÉNY 9,7 1024,3 30 - 562
05:28 7,5 -12,3 12,2 ÉNY 18,3 1024,3 23 - 566
05:33 7,4 -9,1 15,8 ÉNY 15,8 1024,3 30 - 581
05:38 7,9 -12,0 21,9 É 21,9 1024,3 23 - 612
05:43 7,4 -9,1 24,5 ÉK 24,5 1024,6 30 - 599
05:48 7,4 -9,1 8,7 ÉK 19,5 1024,3 30 - 588
05:53 8,1 -11,8 9,7 ÉNY 9,7 1024,3 23 - 589
05:58 7,7 -12,1 13,4 ÉNY 18,3 1024,3 23 - 595
06:03 8,0 -11,9 13,4 ÉK 15,8 1024,3 23 - 597
Napi Summary for Kedd 31 Március 2020
Idő Temp. ( °C ) Dew pt. ( °C ) Szél ( km/h ) Érvényes Széllökés ( km/h ) Légnyomás ( hPa ) Humid.( % ) Rainrate ( cm ) Napsugárzás ( W/m2 )
Erős8,1 -7,5 27,0 ÉNY ( 379/925 ) 27,0 1024,9 53 - 612
Átlag3,6 -9,1 12,9 ÉNY #34/72 14,5 1024,4 40 - 270 #66/72
Gyenge-0,8 -12,3 5,0   5,0 1023,6 23 -  
Napi Tabular details for Kedd 31 Március 2020
Idő Temp. ( °C ) Dew pt. ( °C ) Szél ( km/h ) Érvényes Széllökés ( km/h ) Légnyomás ( hPa ) Humid.( % ) Rainrate ( cm ) Napsugárzás ( W/m2 )
00:04 -0,7 -9,3 6,1 NY 6,1 1023,9 52 - -
00:09 -0,7 -9,6 6,1 NY 6,1 1023,6 51 - -
00:14 -0,7 -9,6 6,1 NY 7,2 1023,9 51 - -
00:19 -0,7 -9,6 6,1 ÉNY 6,1 1023,6 51 - -
00:24 -0,8 -9,4 6,1 ÉNY 6,1 1023,9 52 - -
00:29 -0,8 -9,4 6,1 ÉNY 6,1 1023,9 52 - -
00:34 -0,8 -9,4 5,0 NY 6,1 1023,9 52 - 4
00:39 -0,8 -9,4 6,1 ÉNY 6,1 1023,9 52 - 6
00:44 -0,7 -9,3 5,0 ÉNY 6,1 1024,3 52 - 8
00:49 -0,6 -9,2 8,7 ÉNY 8,7 1023,9 52 - 12
00:54 -0,5 -8,9 5,0 É 6,1 1023,9 53 - 16
00:59 -0,4 -8,8 5,0 ÉNY 6,1 1024,3 53 - 20
01:04 -0,4 -8,8 5,0 ÉNY 5,0 1024,3 53 - 20
01:09 0,0 -8,7 11,1 ÉNY 11,1 1024,3 52 - 28
01:15 0,2 -8,7 11,1 ÉNY 12,2 1024,3 51 - 32
01:20 0,3 -8,9 9,7 ÉNY 11,1 1024,6 50 - 35
01:25 0,2 -9,0 12,2 ÉNY 12,2 1024,3 50 - 36
01:30 0,2 -9,0 8,7 ÉNY 9,7 1024,3 50 - 40
01:35 0,3 -8,9 12,2 ÉNY 12,2 1024,6 50 - 43
01:40 0,7 -8,5 12,2 É 13,4 1023,9 50 - 45
01:45 0,9 -8,4 12,2 ÉNY 13,4 1024,3 50 - 43
01:50 1,1 -8,2 12,2 ÉÉNY 12,2 1024,6 50 - 41
01:55 1,3 -8,5 13,4 ÉNY 17,2 1024,3 48 - 47
02:00 1,4 -8,4 13,4 ÉNY 13,4 1024,3 48 - 45
02:05 1,6 -8,5 13,4 É 13,4 1024,3 47 - 64
02:10 1,8 -8,9 13,4 É 17,2 1024,3 45 - 52
02:15 2,0 -8,7 13,4 ÉNY 17,2 1024,6 45 - 117
02:20 2,5 -8,2 18,3 É 18,3 1024,3 45 - 111
02:25 2,6 -8,4 12,2 É 14,8 1024,6 44 - 174
02:30 3,2 -7,9 15,8 ÉÉNY 17,2 1024,6 44 - 181
02:36 3,5 -7,9 15,8 ÉNY 15,8 1024,3 43 - 141
02:41 3,6 -8,1 18,3 É 18,3 1024,6 42 - 197
02:46 3,6 -8,1 15,8 ÉNY 15,8 1024,6 42 - 164
02:51 4,0 -7,8 14,8 ÉNY 14,8 1024,6 42 - 193
02:56 4,6 -7,5 13,4 ÉNY 13,4 1024,9 41 - 227
03:01 4,6 -7,5 14,8 É 14,8 1024,6 41 - 240
03:06 4,7 -7,8 17,2 É 17,2 1024,6 40 - 253
03:11 4,8 -7,7 17,2 ÉÉNY 17,2 1024,6 40 - 267
03:16 4,8 -7,7 14,8 ÉNY 21,9 1024,6 40 - 224
03:21 4,9 -8,9 12,2 ÉNY 17,2 1024,6 36 - 293
03:26 5,1 -8,8 18,3 ÉNY 18,3 1024,9 36 - 313
03:31 5,3 -7,9 17,2 ÉK 17,2 1024,9 38 - 335
03:36 5,5 -7,7 19,5 É 19,5 1024,6 38 - 349
03:41 5,5 -8,4 13,4 É 15,8 1024,9 36 - 366
03:46 5,6 -7,6 13,4 É 17,2 1024,9 38 - 383
03:51 5,6 -7,6 13,4 É 13,4 1024,9 38 - 403
03:56 5,7 -8,2 15,8 ÉK 15,8 1024,9 36 - 420
04:02 5,8 -8,1 15,8 ÉÉNY 15,8 1024,9 36 - 427
04:07 6,0 -9,1 11,1 ÉNY 13,4 1024,6 33 - 436
04:12 6,0 -9,9 14,8 É 21,9 1024,9 31 - 442
04:17 6,5 -9,4 19,5 É 19,5 1024,6 31 - 446
04:22 6,2 -9,7 15,8 É 20,9 1024,6 31 - 447
04:27 6,2 -9,7 18,3 ÉÉNY 18,3 1024,6 31 - 451
04:32 6,4 -9,5 13,4 ÉK 14,8 1024,6 31 - 471
04:37 6,6 -9,3 11,1 É 21,9 1024,6 31 - 483
04:42 6,4 -9,9 21,9 É 21,9 1024,6 30 - 513
04:47 6,5 -9,8 9,7 É 11,1 1024,6 30 - 111
04:52 5,4 -10,8 11,1 ÉNY 19,5 1024,6 30 - 103
04:57 5,8 -10,5 18,3 ÉNY 18,3 1024,6 30 - 499
05:02 6,7 -9,7 27,0 ÉK 27,0 1024,6 30 - 535
05:07 6,4 -9,9 7,2 É 11,1 1024,3 30 - 99
05:12 6,0 -10,3 17,2 ÉÉNY 18,3 1024,6 30 - 526
05:17 7,0 -9,0 7,2 ÉNY 14,8 1024,3 31 - 552
05:23 7,1 -9,3 9,7 ÉNY 9,7 1024,3 30 - 562
05:28 7,5 -12,3 12,2 ÉNY 18,3 1024,3 23 - 566
05:33 7,4 -9,1 15,8 ÉNY 15,8 1024,3 30 - 581
05:38 7,9 -12,0 21,9 É 21,9 1024,3 23 - 612
05:43 7,4 -9,1 24,5 ÉK 24,5 1024,6 30 - 599
05:48 7,4 -9,1 8,7 ÉK 19,5 1024,3 30 - 588
05:53 8,1 -11,8 9,7 ÉNY 9,7 1024,3 23 - 589
05:58 7,7 -12,1 13,4 ÉNY 18,3 1024,3 23 - 595
06:03 8,0 -11,9 13,4 ÉK 15,8 1024,3 23 - 597

Download your copy of this data-set  here

Our weather-data as stored at Weather Underground. Eredeti script Jim McMurry. Adapted for the template by Leuven-Template.eu

Készülékünk:

Weather-program
Meteobridge

Weather-server
My Computer

Meteobridge

My Computer